createdAt,value
2022-11-24T00:01:06.063Z,1.40
2022-11-24T00:03:33.288Z,1.40
2022-11-24T00:06:11.513Z,1.40
2022-11-24T00:08:40.116Z,1.40
2022-11-24T00:11:09.524Z,1.40
2022-11-24T00:13:39.232Z,1.40
2022-11-24T00:16:15.295Z,1.40
2022-11-24T00:18:44.296Z,1.40
2022-11-24T00:21:11.632Z,1.40
2022-11-24T00:23:38.754Z,1.40
2022-11-24T00:26:06.901Z,1.30
2022-11-24T00:28:34.564Z,1.30
2022-11-24T00:31:01.873Z,1.30
2022-11-24T00:33:28.868Z,1.30
2022-11-24T00:36:00.424Z,1.30
2022-11-24T00:38:27.584Z,1.30
2022-11-24T00:40:54.610Z,1.20
2022-11-24T00:43:21.586Z,1.20
2022-11-24T00:45:48.563Z,1.20
2022-11-24T00:48:15.606Z,1.20
2022-11-24T00:50:42.546Z,1.20
2022-11-24T00:53:09.529Z,1.20
2022-11-24T00:55:36.614Z,1.20
2022-11-24T00:58:03.580Z,1.20
2022-11-24T01:00:30.429Z,1.20
2022-11-24T01:02:57.521Z,1.30
2022-11-24T01:05:24.414Z,1.30
2022-11-24T01:07:51.305Z,1.30
2022-11-24T01:10:18.329Z,1.30
2022-11-24T01:12:45.265Z,1.30
2022-11-24T01:15:12.157Z,1.30
2022-11-24T01:17:39.066Z,1.40
2022-11-24T01:20:06.466Z,1.40
2022-11-24T01:22:34.806Z,1.40
2022-11-24T01:25:01.736Z,1.40
2022-11-24T01:27:28.725Z,1.40
2022-11-24T01:29:55.668Z,1.40
2022-11-24T01:32:22.551Z,1.40
2022-11-24T01:34:49.432Z,1.40
2022-11-24T01:37:16.483Z,1.40
2022-11-24T01:39:43.433Z,1.40
2022-11-24T01:42:10.613Z,1.50
2022-11-24T01:44:37.503Z,1.40
2022-11-24T01:47:35.907Z,1.40
2022-11-24T01:50:04.839Z,1.40
2022-11-24T01:52:44.716Z,1.40
2022-11-24T01:55:27.824Z,1.40
2022-11-24T01:58:05.385Z,1.40
2022-11-24T02:00:34.663Z,1.40
2022-11-24T02:03:01.839Z,1.40
2022-11-24T02:05:43.815Z,1.40
2022-11-24T02:08:55.278Z,1.40
2022-11-24T02:11:23.971Z,1.40
2022-11-24T02:13:53.196Z,1.40
2022-11-24T02:16:20.381Z,1.40
2022-11-24T02:18:47.588Z,1.40
2022-11-24T02:21:16.296Z,1.40
2022-11-24T02:24:00.530Z,1.40
2022-11-24T02:26:43.855Z,1.40
2022-11-24T02:29:12.992Z,1.40
2022-11-24T02:31:48.107Z,1.40
2022-11-24T02:34:15.449Z,1.40
2022-11-24T02:36:42.495Z,1.40
2022-11-24T02:39:13.838Z,1.40
2022-11-24T02:41:44.982Z,1.40
2022-11-24T02:44:15.619Z,1.40
2022-11-24T02:46:42.538Z,1.40
2022-11-24T02:49:09.602Z,1.30
2022-11-24T02:51:36.528Z,1.30
2022-11-24T02:54:03.452Z,1.30
2022-11-24T02:56:30.309Z,1.30
2022-11-24T02:58:57.220Z,1.30
2022-11-24T03:01:24.225Z,1.30
2022-11-24T03:03:51.153Z,1.40
2022-11-24T03:06:18.017Z,1.40
2022-11-24T03:08:45.053Z,1.40
2022-11-24T03:11:12.312Z,1.40
2022-11-24T03:13:39.265Z,1.40
2022-11-24T03:16:09.329Z,1.40
2022-11-24T03:18:36.348Z,1.40
2022-11-24T03:21:03.237Z,1.50
2022-11-24T03:23:30.134Z,1.40
2022-11-24T03:26:10.930Z,1.40
2022-11-24T03:28:38.078Z,1.40
2022-11-24T03:31:05.693Z,1.40
2022-11-24T03:33:32.642Z,1.40
2022-11-24T03:35:59.809Z,1.40
2022-11-24T03:38:27.101Z,1.40
2022-11-24T03:40:54.092Z,1.50
2022-11-24T03:43:21.505Z,1.40
2022-11-24T03:45:50.106Z,1.50
2022-11-24T03:48:18.802Z,1.40
2022-11-24T03:50:56.313Z,1.40
2022-11-24T03:53:25.063Z,1.50
2022-11-24T03:55:52.337Z,1.50
2022-11-24T03:58:19.603Z,1.50
2022-11-24T04:00:52.456Z,1.50
2022-11-24T04:03:19.812Z,1.40
2022-11-24T04:05:47.632Z,1.40
2022-11-24T04:08:15.210Z,1.50
2022-11-24T04:10:42.976Z,1.50
2022-11-24T04:13:15.400Z,1.50
2022-11-24T04:15:55.087Z,1.50
2022-11-24T04:18:22.431Z,1.50
2022-11-24T04:20:50.804Z,1.50
2022-11-24T04:23:18.001Z,1.50
2022-11-24T04:25:44.908Z,1.50
2022-11-24T04:28:11.943Z,1.50
2022-11-24T04:30:40.353Z,1.50
2022-11-24T04:33:07.333Z,1.40
2022-11-24T04:35:35.177Z,1.50
2022-11-24T04:38:05.172Z,1.50
2022-11-24T04:40:32.111Z,1.50
2022-11-24T04:42:59.090Z,1.40
2022-11-24T04:45:26.149Z,1.40
2022-11-24T04:47:53.125Z,1.50
2022-11-24T04:50:20.810Z,1.50
2022-11-24T04:52:47.730Z,1.50
2022-11-24T04:55:14.770Z,1.50
2022-11-24T04:57:41.733Z,1.50
2022-11-24T05:00:10.499Z,1.50
2022-11-24T05:02:37.872Z,1.50
2022-11-24T05:05:06.472Z,1.50
2022-11-24T05:07:36.418Z,1.50
2022-11-24T05:10:22.559Z,1.60
2022-11-24T05:12:57.023Z,1.50
2022-11-24T05:15:24.106Z,1.50
2022-11-24T05:17:50.963Z,1.50
2022-11-24T05:20:18.314Z,1.50
2022-11-24T05:22:45.321Z,1.60
2022-11-24T05:25:12.952Z,1.60
2022-11-24T05:27:40.120Z,1.60
2022-11-24T05:30:07.789Z,1.60
2022-11-24T05:32:34.729Z,1.50
2022-11-24T05:35:02.495Z,1.50
2022-11-24T05:37:29.430Z,1.50
2022-11-24T05:39:56.293Z,1.50
2022-11-24T05:42:46.522Z,1.60
2022-11-24T05:45:19.555Z,1.60
2022-11-24T05:47:46.930Z,1.60
2022-11-24T05:50:16.945Z,1.60
2022-11-24T05:52:43.848Z,1.60
2022-11-24T05:55:12.202Z,1.60
2022-11-24T05:57:39.107Z,1.60
2022-11-24T06:00:07.799Z,1.60
2022-11-24T06:02:41.360Z,1.50
2022-11-24T06:05:09.121Z,1.50
2022-11-24T06:07:35.970Z,1.50
2022-11-24T06:10:03.089Z,1.60
2022-11-24T06:12:29.972Z,1.50
2022-11-24T06:14:56.824Z,1.50
2022-11-24T06:17:23.878Z,1.50
2022-11-24T06:19:51.733Z,1.50
2022-11-24T06:22:19.406Z,1.50
2022-11-24T06:24:47.092Z,1.50
2022-11-24T06:27:14.624Z,1.50
2022-11-24T06:29:41.766Z,1.50
2022-11-24T06:32:09.492Z,1.50
2022-11-24T06:34:36.918Z,1.50
2022-11-24T06:37:04.047Z,1.50
2022-11-24T06:39:31.052Z,1.40
2022-11-24T06:41:58.128Z,1.40
2022-11-24T06:44:25.214Z,1.40
2022-11-24T06:46:52.260Z,1.50
2022-11-24T06:49:19.541Z,1.50
2022-11-24T06:51:46.574Z,1.40
2022-11-24T06:54:21.200Z,1.40
2022-11-24T06:56:48.254Z,1.50
2022-11-24T06:59:20.694Z,1.50
2022-11-24T07:01:47.962Z,1.50
2022-11-24T07:04:15.319Z,1.50
2022-11-24T07:06:42.881Z,1.40
2022-11-24T07:09:11.242Z,1.40
2022-11-24T07:11:38.965Z,1.40
2022-11-24T07:14:06.330Z,1.40
2022-11-24T07:16:33.846Z,1.40
2022-11-24T07:19:01.574Z,1.40
2022-11-24T07:21:30.584Z,1.40
2022-11-24T07:23:58.480Z,1.40
2022-11-24T07:26:26.146Z,1.40
2022-11-24T07:28:53.044Z,1.40
2022-11-24T07:31:22.336Z,1.40
2022-11-24T07:33:54.214Z,1.40
2022-11-24T07:36:21.993Z,1.30
2022-11-24T07:38:48.934Z,1.30
2022-11-24T07:41:19.406Z,1.30
2022-11-24T07:43:47.435Z,1.40
2022-11-24T07:46:16.291Z,1.40
2022-11-24T07:48:43.433Z,1.40
2022-11-24T07:51:10.639Z,1.40
2022-11-24T07:53:38.287Z,1.50
2022-11-24T07:56:06.637Z,1.50
2022-11-24T07:58:36.097Z,1.50
2022-11-24T08:01:14.749Z,1.50
2022-11-24T08:03:43.018Z,1.50
2022-11-24T08:06:29.983Z,1.50
2022-11-24T08:08:57.839Z,1.40
2022-11-24T08:11:25.357Z,1.50
2022-11-24T08:13:52.524Z,1.50
2022-11-24T08:16:20.603Z,1.50
2022-11-24T08:18:51.634Z,1.40
2022-11-24T08:21:18.568Z,1.40
2022-11-24T08:23:45.650Z,1.50
2022-11-24T08:26:17.673Z,1.50
2022-11-24T08:28:46.425Z,1.50
2022-11-24T08:31:16.531Z,1.50
2022-11-24T08:33:43.604Z,1.50
2022-11-24T08:36:12.686Z,1.50
2022-11-24T08:38:39.649Z,1.50
2022-11-24T08:41:11.755Z,1.40
2022-11-24T08:43:38.804Z,1.40
2022-11-24T08:46:12.508Z,1.40
2022-11-24T08:48:39.963Z,1.50
2022-11-24T08:51:12.612Z,1.50
2022-11-24T08:53:40.691Z,1.60
2022-11-24T08:56:08.789Z,1.60
2022-11-24T08:58:35.649Z,1.60
2022-11-24T09:01:11.662Z,1.60
2022-11-24T09:03:43.383Z,1.60
2022-11-24T09:06:13.883Z,1.60
2022-11-24T09:08:41.434Z,1.70
2022-11-24T09:11:11.262Z,1.70
2022-11-24T09:13:38.993Z,1.70
2022-11-24T09:16:11.857Z,1.70
2022-11-24T09:18:39.537Z,1.70
2022-11-24T09:21:11.873Z,1.70
2022-11-24T09:23:39.315Z,1.70
2022-11-24T09:26:15.644Z,1.70
2022-11-24T09:28:43.471Z,1.70
2022-11-24T09:31:13.479Z,1.60
2022-11-24T09:33:41.669Z,1.70
2022-11-24T09:36:08.976Z,1.70
2022-11-24T09:38:36.010Z,1.70
2022-11-24T09:41:18.185Z,1.70
2022-11-24T09:44:03.957Z,1.60
2022-11-24T09:46:49.273Z,1.70
2022-11-24T09:49:24.156Z,1.70
2022-11-24T09:51:55.162Z,1.70
2022-11-24T09:54:29.929Z,1.70
2022-11-24T09:57:01.029Z,1.70
2022-11-24T09:59:28.622Z,1.70
2022-11-24T10:01:56.651Z,1.80
2022-11-24T10:04:39.590Z,1.70
2022-11-24T10:07:30.580Z,1.80
2022-11-24T10:10:03.666Z,1.80
2022-11-24T10:12:45.872Z,1.80
2022-11-24T10:15:31.032Z,1.80
2022-11-24T10:18:28.004Z,1.80
2022-11-24T10:21:04.044Z,1.90
2022-11-24T10:23:45.828Z,1.90
2022-11-24T10:26:44.362Z,1.90
2022-11-24T10:29:24.714Z,1.90
2022-11-24T10:31:55.433Z,1.90
2022-11-24T10:34:39.279Z,1.90
2022-11-24T10:37:35.159Z,1.90
2022-11-24T10:40:56.050Z,1.90
2022-11-24T10:43:20.807Z,1.90
2022-11-24T10:45:48.289Z,1.90
2022-11-24T10:48:36.679Z,1.90
2022-11-24T10:51:42.035Z,1.90
2022-11-24T10:54:21.622Z,1.90
2022-11-24T10:56:51.672Z,1.90
2022-11-24T10:59:24.582Z,1.90
2022-11-24T11:01:52.724Z,1.90
2022-11-24T11:04:26.102Z,1.90
2022-11-24T11:06:53.088Z,1.90
2022-11-24T11:09:22.354Z,1.90
2022-11-24T11:11:49.550Z,1.80
2022-11-24T11:14:35.756Z,1.80
2022-11-24T11:17:02.792Z,1.80
2022-11-24T11:20:00.089Z,1.80
2022-11-24T11:22:31.820Z,1.90
2022-11-24T11:25:10.939Z,1.90
2022-11-24T11:27:39.691Z,1.90
2022-11-24T11:36:15.646Z,2.00
2022-11-24T11:38:45.179Z,1.90
2022-11-24T11:41:20.416Z,1.80
2022-11-24T11:43:54.631Z,1.80
2022-11-24T11:46:21.803Z,1.80
2022-11-24T11:48:48.898Z,1.80
2022-11-24T11:51:34.837Z,1.80
2022-11-24T11:54:16.766Z,1.80
2022-11-24T11:56:50.320Z,1.80
2022-11-24T11:59:55.586Z,1.80
2022-11-24T12:02:41.120Z,1.70
2022-11-24T12:05:26.935Z,1.70
2022-11-24T12:08:04.946Z,1.70
2022-11-24T12:10:37.550Z,1.80
2022-11-24T12:13:31.238Z,1.80
2022-11-24T12:16:09.523Z,1.80
2022-11-24T12:18:57.516Z,1.80
2022-11-24T12:21:27.909Z,1.80
2022-11-24T12:24:23.348Z,1.70
2022-11-24T12:26:57.797Z,1.70
2022-11-24T12:29:30.486Z,1.70
2022-11-24T12:32:24.753Z,1.70
2022-11-24T12:35:16.075Z,1.70
2022-11-24T12:38:03.704Z,1.70
2022-11-24T12:40:55.248Z,1.70
2022-11-24T12:43:38.954Z,1.70
2022-11-24T12:46:29.267Z,1.60
2022-11-24T12:49:14.829Z,1.70
2022-11-24T12:51:49.108Z,1.60
2022-11-24T12:54:21.683Z,1.60
2022-11-24T12:57:06.336Z,1.80
2022-11-24T12:59:33.531Z,1.80
2022-11-24T13:02:03.793Z,1.80
2022-11-24T13:04:52.566Z,1.80
2022-11-24T13:07:50.039Z,1.80
2022-11-24T13:10:53.539Z,1.80
2022-11-24T13:13:15.230Z,1.90
2022-11-24T13:16:28.521Z,1.90
2022-11-24T13:19:14.214Z,1.80
2022-11-24T13:21:41.477Z,1.80
2022-11-24T13:24:18.961Z,1.80
2022-11-24T13:26:52.468Z,1.80
2022-11-24T13:29:28.962Z,1.80
2022-11-24T13:32:17.592Z,1.80
2022-11-24T13:34:49.660Z,1.80
2022-11-24T13:37:29.094Z,1.70
2022-11-24T13:40:22.714Z,1.70
2022-11-24T13:43:13.225Z,1.70
2022-11-24T13:45:40.620Z,1.60
2022-11-24T13:48:20.792Z,1.60
2022-11-24T13:50:51.751Z,1.60
2022-11-24T13:53:58.242Z,1.60
2022-11-24T13:56:28.391Z,1.60
2022-11-24T13:59:01.912Z,1.60
2022-11-24T14:01:40.844Z,1.60
2022-11-24T14:04:43.367Z,1.60
2022-11-24T14:07:14.853Z,1.60
2022-11-24T14:09:51.189Z,1.60
2022-11-24T14:12:26.115Z,1.60
2022-11-24T14:14:55.843Z,1.60
2022-11-24T14:17:28.555Z,1.60
2022-11-24T14:19:57.294Z,1.50
2022-11-24T14:22:33.749Z,1.60
2022-11-24T14:25:02.261Z,1.60
2022-11-24T14:27:40.070Z,1.60
2022-11-24T14:30:10.093Z,1.60
2022-11-24T14:32:37.851Z,1.60
2022-11-24T14:35:23.811Z,1.60
2022-11-24T14:37:50.958Z,1.60
2022-11-24T14:40:37.046Z,1.60
2022-11-24T14:43:17.604Z,1.60
2022-11-24T14:45:55.108Z,1.60
2022-11-24T14:48:36.786Z,1.60
2022-11-24T14:51:26.873Z,1.60
2022-11-24T14:54:00.318Z,1.60
2022-11-24T14:56:34.523Z,1.50
2022-11-24T14:59:01.842Z,1.60
2022-11-24T15:01:29.219Z,1.60
2022-11-24T15:04:38.996Z,1.60
2022-11-24T15:07:04.667Z,1.60
2022-11-24T15:09:39.580Z,1.60
2022-11-24T15:12:11.177Z,1.60
2022-11-24T15:15:22.715Z,1.60
2022-11-24T15:17:56.263Z,1.50
2022-11-24T15:20:30.660Z,1.50
2022-11-24T15:23:25.519Z,1.50
2022-11-24T15:26:02.229Z,1.50
2022-11-24T15:28:31.126Z,1.50
2022-11-24T15:31:06.970Z,1.50
2022-11-24T15:33:33.829Z,1.60
2022-11-24T15:36:01.038Z,1.60
2022-11-24T15:38:28.041Z,1.60
2022-11-24T15:40:58.043Z,1.60
2022-11-24T15:43:31.952Z,1.60
2022-11-24T15:46:00.238Z,1.60
2022-11-24T15:48:27.777Z,1.70
2022-11-24T15:50:56.485Z,1.60
2022-11-24T15:53:46.663Z,1.60
2022-11-24T15:56:32.211Z,1.70
2022-11-24T15:58:59.719Z,1.70
2022-11-24T16:01:31.190Z,1.60
2022-11-24T16:03:58.297Z,1.60
2022-11-24T16:06:25.789Z,1.70
2022-11-24T16:08:53.796Z,1.70
2022-11-24T16:11:20.792Z,1.70
2022-11-24T16:13:52.398Z,1.80
2022-11-24T16:16:22.054Z,1.80
2022-11-24T16:18:49.335Z,1.80
2022-11-24T16:21:16.419Z,1.70
2022-11-24T16:23:43.698Z,1.70
2022-11-24T16:26:10.650Z,1.70
2022-11-24T16:28:37.601Z,1.70
2022-11-24T16:31:04.849Z,1.70
2022-11-24T16:33:31.912Z,1.70
2022-11-24T16:35:58.799Z,1.70
2022-11-24T16:38:25.937Z,1.70
2022-11-24T16:40:54.219Z,1.80
2022-11-24T16:43:21.662Z,1.70
2022-11-24T16:46:06.742Z,1.70
2022-11-24T16:48:37.402Z,1.70
2022-11-24T16:51:10.243Z,1.70
2022-11-24T16:53:38.014Z,1.70
2022-11-24T16:56:05.264Z,1.70
2022-11-24T16:58:32.424Z,1.70
2022-11-24T17:01:11.143Z,1.70
2022-11-24T17:03:38.957Z,1.80
2022-11-24T17:06:08.225Z,1.70
2022-11-24T17:08:37.212Z,1.80
2022-11-24T17:11:08.061Z,1.80
2022-11-24T17:13:35.185Z,1.70
2022-11-24T17:16:10.554Z,1.80
2022-11-24T17:18:38.861Z,1.80
2022-11-24T17:21:09.743Z,1.80
2022-11-24T17:23:38.104Z,1.80
2022-11-24T17:26:14.122Z,1.80
2022-11-24T17:28:41.896Z,1.80
2022-11-24T17:31:25.492Z,1.70
2022-11-24T17:33:57.512Z,1.80
2022-11-24T17:36:24.939Z,1.80
2022-11-24T17:38:52.161Z,1.80
2022-11-24T17:41:19.935Z,1.80
2022-11-24T17:43:55.757Z,1.80
2022-11-24T17:46:27.442Z,1.70
2022-11-24T17:48:54.741Z,1.70
2022-11-24T17:51:23.870Z,1.70
2022-11-24T17:53:52.287Z,1.70
2022-11-24T17:56:24.841Z,1.70
2022-11-24T17:59:00.088Z,1.70
2022-11-24T18:01:31.520Z,1.70
2022-11-24T18:03:58.744Z,1.70
2022-11-24T18:06:26.019Z,1.70
2022-11-24T18:08:54.018Z,1.80
2022-11-24T18:11:30.543Z,1.80
2022-11-24T18:14:01.930Z,1.80
2022-11-24T18:16:31.592Z,1.70
2022-11-24T18:19:10.026Z,1.80
2022-11-24T18:21:41.595Z,1.70
2022-11-24T18:24:10.131Z,1.70
2022-11-24T18:26:37.945Z,1.80
2022-11-24T18:29:05.150Z,1.70
2022-11-24T18:31:34.242Z,1.70
2022-11-24T18:34:02.496Z,1.70
2022-11-24T18:36:30.723Z,1.70
2022-11-24T18:39:05.305Z,1.70
2022-11-24T18:41:32.545Z,1.80
2022-11-24T18:44:03.032Z,1.80
2022-11-24T18:46:30.015Z,1.80
2022-11-24T18:48:57.176Z,1.70
2022-11-24T18:51:24.178Z,1.70
2022-11-24T18:53:58.299Z,1.80
2022-11-24T18:56:26.006Z,1.70
2022-11-24T18:58:54.996Z,1.70
2022-11-24T19:01:28.011Z,1.70
2022-11-24T19:03:57.447Z,1.70
2022-11-24T19:06:34.885Z,1.60
2022-11-24T19:09:08.152Z,1.70
2022-11-24T19:11:37.578Z,1.70
2022-11-24T19:14:05.948Z,1.70
2022-11-24T19:16:33.767Z,1.70
2022-11-24T19:19:02.718Z,1.80
2022-11-24T19:21:37.529Z,1.80
2022-11-24T19:24:13.067Z,1.80
2022-11-24T19:26:40.436Z,1.80
2022-11-24T19:29:07.954Z,1.80
2022-11-24T19:31:35.865Z,1.80
2022-11-24T19:34:03.631Z,1.80
2022-11-24T19:36:30.967Z,1.80
2022-11-24T19:38:59.544Z,1.80
2022-11-24T19:41:29.122Z,1.80
2022-11-24T19:43:57.933Z,1.80
2022-11-24T19:46:27.414Z,1.80
2022-11-24T19:48:57.082Z,1.70
2022-11-24T19:51:32.801Z,1.70
2022-11-24T19:54:00.420Z,1.80
2022-11-24T19:56:29.775Z,1.80
2022-11-24T19:58:56.762Z,1.80
2022-11-24T20:01:26.609Z,1.70
2022-11-24T20:03:59.732Z,1.70
2022-11-24T20:06:28.619Z,1.70
2022-11-24T20:08:57.135Z,1.70
2022-11-24T20:11:24.266Z,1.80
2022-11-24T20:13:51.746Z,1.80
2022-11-24T20:16:29.864Z,1.80
2022-11-24T20:19:05.815Z,1.80
2022-11-24T20:21:34.273Z,1.80
2022-11-24T20:24:04.113Z,1.80
2022-11-24T20:26:34.591Z,1.70
2022-11-24T20:29:02.496Z,1.70
2022-11-24T20:31:32.615Z,1.60
2022-11-24T20:34:01.553Z,1.60
2022-11-24T20:36:30.419Z,1.60
2022-11-24T20:39:00.373Z,1.60
2022-11-24T20:41:29.998Z,1.60
2022-11-24T20:43:59.853Z,1.60
2022-11-24T20:46:29.734Z,1.60
2022-11-24T20:48:57.328Z,1.60
2022-11-24T20:51:27.215Z,1.70
2022-11-24T20:53:57.143Z,1.70
2022-11-24T20:56:27.716Z,1.70
2022-11-24T20:58:55.852Z,1.70
2022-11-24T21:01:27.607Z,1.70
2022-11-24T21:03:58.916Z,1.70
2022-11-24T21:06:28.024Z,1.70
2022-11-24T21:09:00.486Z,1.60
2022-11-24T21:11:33.782Z,1.60
2022-11-24T21:14:01.451Z,1.60
2022-11-24T21:16:31.218Z,1.60
2022-11-24T21:19:00.553Z,1.60
2022-11-24T21:21:35.213Z,1.70
2022-11-24T21:24:03.816Z,1.60
2022-11-24T21:26:31.019Z,1.70
2022-11-24T21:28:58.321Z,1.70
2022-11-24T21:31:26.210Z,1.70
2022-11-24T21:33:54.634Z,1.80
2022-11-24T21:36:23.753Z,1.70
2022-11-24T21:38:56.498Z,1.70
2022-11-24T21:41:26.188Z,1.80
2022-11-24T21:43:55.872Z,1.80
2022-11-24T21:46:23.407Z,1.70
2022-11-24T21:48:50.989Z,1.80
2022-11-24T21:51:20.677Z,1.70
2022-11-24T21:53:47.893Z,1.70
2022-11-24T21:56:20.436Z,1.80
2022-11-24T21:58:52.737Z,1.80
2022-11-24T22:01:21.769Z,1.70
2022-11-24T22:03:49.057Z,1.80
2022-11-24T22:06:18.046Z,1.80
2022-11-24T22:08:46.446Z,1.80
2022-11-24T22:11:15.525Z,1.90
2022-11-24T22:13:43.673Z,1.90
2022-11-24T22:16:13.765Z,1.90
2022-11-24T22:18:43.493Z,1.90
2022-11-24T22:21:30.158Z,1.90
2022-11-24T22:23:57.503Z,1.80
2022-11-24T22:26:25.236Z,1.80
2022-11-24T22:28:54.014Z,1.90
2022-11-24T22:31:26.608Z,1.80
2022-11-24T22:33:54.323Z,1.80
2022-11-24T22:36:23.107Z,1.90
2022-11-24T22:38:58.985Z,2.00
2022-11-24T22:41:28.973Z,1.90
2022-11-24T22:43:56.334Z,1.90
2022-11-24T22:46:26.376Z,2.00
2022-11-24T22:48:55.192Z,2.00
2022-11-24T22:51:32.942Z,2.00
2022-11-24T22:54:02.560Z,2.00
2022-11-24T22:56:32.466Z,2.00
2022-11-24T22:59:04.490Z,2.00
2022-11-24T23:01:33.701Z,2.00
2022-11-24T23:04:01.166Z,2.00
2022-11-24T23:06:30.544Z,2.00
2022-11-24T23:08:59.332Z,2.10
2022-11-24T23:11:35.136Z,2.00
2022-11-24T23:14:05.801Z,2.00
2022-11-24T23:16:33.142Z,2.00
2022-11-24T23:19:00.107Z,2.00
2022-11-24T23:21:32.482Z,2.00
2022-11-24T23:24:00.899Z,2.00
2022-11-24T23:26:38.164Z,2.00
2022-11-24T23:29:06.075Z,1.90
2022-11-24T23:31:33.572Z,1.90
2022-11-24T23:34:02.829Z,1.90
2022-11-24T23:36:31.381Z,1.90
2022-11-24T23:39:07.078Z,1.80
2022-11-24T23:41:35.007Z,1.80
2022-11-24T23:44:02.183Z,1.80
2022-11-24T23:46:29.561Z,1.80
2022-11-24T23:48:57.196Z,1.80
2022-11-24T23:51:26.786Z,1.80
2022-11-24T23:53:54.564Z,1.80
2022-11-24T23:56:23.788Z,1.80
2022-11-24T23:58:51.446Z,1.80
